sensor_id;sensor_type;location;lat;lon;timestamp;pressure;altitude;pressure_sealevel;temperature;humidity
76060;BME280;64759;52.220;5.170;2022-12-18T00:00:42;102765.41;;;-2.66;nan
76060;BME280;64759;52.220;5.170;2022-12-18T00:03:08;102759.44;;;-2.59;82.88
76060;BME280;64759;52.220;5.170;2022-12-18T00:05:33;102757.75;;;-2.60;82.61
76060;BME280;64759;52.220;5.170;2022-12-18T00:07:58;102763.66;;;-2.59;82.39
76060;BME280;64759;52.220;5.170;2022-12-18T00:10:24;102769.56;;;-2.56;82.48
76060;BME280;64759;52.220;5.170;2022-12-18T00:12:49;102752.53;;;-2.39;82.31
76060;BME280;64759;52.220;5.170;2022-12-18T00:15:14;102753.44;;;-2.49;82.38
76060;BME280;64759;52.220;5.170;2022-12-18T00:17:40;102765.22;;;-2.42;81.85
76060;BME280;64759;52.220;5.170;2022-12-18T00:20:06;102761.97;;;-2.62;81.95
76060;BME280;64759;52.220;5.170;2022-12-18T00:22:31;102759.47;;;-2.63;82.78
76060;BME280;64759;52.220;5.170;2022-12-18T00:24:57;102760.22;;;-2.52;82.24
76060;BME280;64759;52.220;5.170;2022-12-18T00:27:22;102755.19;;;-2.57;81.91
76060;BME280;64759;52.220;5.170;2022-12-18T00:29:48;102743.44;;;-2.70;82.46
76060;BME280;64759;52.220;5.170;2022-12-18T00:32:13;102757.78;;;-2.65;82.36
76060;BME280;64759;52.220;5.170;2022-12-18T00:34:38;102751.84;;;-2.65;82.20
76060;BME280;64759;52.220;5.170;2022-12-18T00:37:04;102749.28;;;-2.59;81.93
76060;BME280;64759;52.220;5.170;2022-12-18T00:39:29;102750.16;;;-2.61;82.16
76060;BME280;64759;52.220;5.170;2022-12-18T00:41:55;102751.13;;;-2.82;82.82
76060;BME280;64759;52.220;5.170;2022-12-18T00:44:38;102755.31;;;-2.74;82.45
76060;BME280;64759;52.220;5.170;2022-12-18T00:47:04;102751.91;;;-2.71;82.42
76060;BME280;64759;52.220;5.170;2022-12-18T00:49:29;102757.03;;;-2.82;82.66
76060;BME280;64759;52.220;5.170;2022-12-18T00:51:55;102760.31;;;-2.65;81.57
76060;BME280;64759;52.220;5.170;2022-12-18T00:54:20;102757.69;;;-2.52;81.42
76060;BME280;64759;52.220;5.170;2022-12-18T00:56:46;102759.38;;;-2.53;81.38
76060;BME280;64759;52.220;5.170;2022-12-18T00:59:11;102751.84;;;-2.62;81.28
76060;BME280;64759;52.220;5.170;2022-12-18T01:01:37;102749.38;;;-2.73;81.67
76060;BME280;64759;52.220;5.170;2022-12-18T01:04:04;102746.88;;;-2.77;81.39
76060;BME280;64759;52.220;5.170;2022-12-18T01:06:30;102748.56;;;-2.73;81.92
76060;BME280;64759;52.220;5.170;2022-12-18T01:08:55;102757.06;;;-2.80;81.54
76060;BME280;64759;52.220;5.170;2022-12-18T01:11:23;102752.94;;;-3.01;82.13
76060;BME280;64759;52.220;5.170;2022-12-18T01:13:49;102750.31;;;-2.86;81.83
76060;BME280;64759;52.220;5.170;2022-12-18T01:16:16;102749.47;;;-2.83;81.62
76060;BME280;64759;52.220;5.170;2022-12-18T01:18:42;102752.09;;;-3.01;81.79
76060;BME280;64759;52.220;5.170;2022-12-18T01:21:10;102745.38;;;-3.02;82.16
76060;BME280;64759;52.220;5.170;2022-12-18T01:23:36;102747.03;;;-3.01;81.90
76060;BME280;64759;52.220;5.170;2022-12-18T01:26:11;102747.91;;;-3.02;81.58
76060;BME280;64759;52.220;5.170;2022-12-18T01:28:37;102742.88;;;-3.10;81.94
76060;BME280;64759;52.220;5.170;2022-12-18T01:31:18;102752.06;;;-2.95;82.00
76060;BME280;64759;52.220;5.170;2022-12-18T01:33:45;102749.56;;;-2.98;81.47
76060;BME280;64759;52.220;5.170;2022-12-18T01:36:23;102757.19;;;-3.04;81.56
76060;BME280;64759;52.220;5.170;2022-12-18T01:38:49;102763.84;;;-2.85;81.25
76060;BME280;64759;52.220;5.170;2022-12-18T01:41:17;102757.06;;;-2.85;81.27
76060;BME280;64759;52.220;5.170;2022-12-18T01:46:34;102751.28;;;-3.05;81.46
76060;BME280;64759;52.220;5.170;2022-12-18T01:49:01;102755.53;;;-3.08;81.22
76060;BME280;64759;52.220;5.170;2022-12-18T01:51:28;102759.75;;;-3.07;81.25
76060;BME280;64759;52.220;5.170;2022-12-18T01:53:55;102770.72;;;-3.02;81.26
76060;BME280;64759;52.220;5.170;2022-12-18T01:56:21;102774.09;;;-3.03;81.31
76060;BME280;64759;52.220;5.170;2022-12-18T01:58:58;102781.72;;;-3.11;81.63
76060;BME280;64759;52.220;5.170;2022-12-18T02:01:25;102791.94;;;-3.26;81.81
76060;BME280;64759;52.220;5.170;2022-12-18T02:03:51;102797.75;;;-3.06;81.12
76060;BME280;64759;52.220;5.170;2022-12-18T02:06:43;102786.00;;;-3.17;81.98
76060;BME280;64759;52.220;5.170;2022-12-18T02:09:20;102792.66;;;-2.98;80.79
76060;BME280;64759;52.220;5.170;2022-12-18T02:12:06;102803.59;;;-2.90;80.49
76060;BME280;64759;52.220;5.170;2022-12-18T02:14:55;102809.59;;;-3.09;80.95
76060;BME280;64759;52.220;5.170;2022-12-18T02:17:39;102813.00;;;-3.13;81.03
76060;BME280;64759;52.220;5.170;2022-12-18T02:20:18;102816.31;;;-3.01;80.56
76060;BME280;64759;52.220;5.170;2022-12-18T02:28:24;102814.53;;;-2.87;80.42
76060;BME280;64759;52.220;5.170;2022-12-18T02:30:56;102804.31;;;-2.70;80.42
76060;BME280;64759;52.220;5.170;2022-12-18T02:33:25;102799.19;;;-2.64;79.87
76060;BME280;64759;52.220;5.170;2022-12-18T02:35:53;102795.91;;;-2.80;79.26
76060;BME280;64759;52.220;5.170;2022-12-18T02:38:20;102795.06;;;-2.76;79.69
76060;BME280;64759;52.220;5.170;2022-12-18T02:40:49;102799.28;;;-2.76;79.68
76060;BME280;64759;52.220;5.170;2022-12-18T02:43:17;102783.31;;;-2.92;79.88
76060;BME280;64759;52.220;5.170;2022-12-18T02:46:23;102779.16;;;-3.06;80.43
76060;BME280;64759;52.220;5.170;2022-12-18T02:48:54;102774.94;;;-3.09;80.63
76060;BME280;64759;52.220;5.170;2022-12-18T02:51:30;102767.47;;;-3.30;80.99
76060;BME280;64759;52.220;5.170;2022-12-18T02:54:08;102769.09;;;-3.18;80.35
76060;BME280;64759;52.220;5.170;2022-12-18T02:56:51;102765.69;;;-3.19;80.54
76060;BME280;64759;52.220;5.170;2022-12-18T02:59:35;102760.66;;;-3.17;80.84
76060;BME280;64759;52.220;5.170;2022-12-18T03:02:22;102748.94;;;-3.43;81.02
76060;BME280;64759;52.220;5.170;2022-12-18T03:05:08;102759.06;;;-3.43;81.54
76060;BME280;64759;52.220;5.170;2022-12-18T03:10:38;102758.16;;;-3.25;80.63
76060;BME280;64759;52.220;5.170;2022-12-18T03:13:10;102750.56;;;-3.29;80.64
76060;BME280;64759;52.220;5.170;2022-12-18T03:15:44;102748.84;;;-3.20;80.46
76060;BME280;64759;52.220;5.170;2022-12-18T03:18:17;102739.50;;;-3.13;80.26
76060;BME280;64759;52.220;5.170;2022-12-18T03:20:47;102744.53;;;-3.06;79.71
76060;BME280;64759;52.220;5.170;2022-12-18T03:23:29;102731.03;;;-3.08;79.44
76060;BME280;64759;52.220;5.170;2022-12-18T03:26:00;102715.84;;;-3.14;79.51
76060;BME280;64759;52.220;5.170;2022-12-18T03:28:30;102729.31;;;-3.04;79.04
76060;BME280;64759;52.220;5.170;2022-12-18T03:31:02;102720.88;;;-3.05;78.90
76060;BME280;64759;52.220;5.170;2022-12-18T03:33:37;102719.97;;;-2.96;78.90
76060;BME280;64759;52.220;5.170;2022-12-18T03:36:04;102710.72;;;-3.03;78.09
76060;BME280;64759;52.220;5.170;2022-12-18T03:38:31;102714.19;;;-3.15;78.50
76060;BME280;64759;52.220;5.170;2022-12-18T03:44:23;102713.25;;;-3.03;77.87
76060;BME280;64759;52.220;5.170;2022-12-18T03:52:37;102705.75;;;-3.20;76.96
76060;BME280;64759;52.220;5.170;2022-12-18T03:55:07;102700.75;;;-3.32;76.74
76060;BME280;64759;52.220;5.170;2022-12-18T03:57:34;102705.81;;;-3.34;77.61
76060;BME280;64759;52.220;5.170;2022-12-18T04:00:17;102699.91;;;-3.33;77.43
76060;BME280;64759;52.220;5.170;2022-12-18T04:02:56;102694.03;;;-3.39;77.09
76060;BME280;64759;52.220;5.170;2022-12-18T04:05:32;102698.28;;;-3.49;77.01
76060;BME280;64759;52.220;5.170;2022-12-18T04:08:00;102684.75;;;-3.46;77.34
76060;BME280;64759;52.220;5.170;2022-12-18T04:10:27;102677.06;;;-3.26;76.92
76060;BME280;64759;52.220;5.170;2022-12-18T04:12:56;102670.38;;;-3.35;76.80
76060;BME280;64759;52.220;5.170;2022-12-18T04:15:23;102667.78;;;-3.27;76.70
76060;BME280;64759;52.220;5.170;2022-12-18T04:17:49;102670.28;;;-3.20;75.99
76060;BME280;64759;52.220;5.170;2022-12-18T04:20:18;102672.81;;;-3.20;75.70
76060;BME280;64759;52.220;5.170;2022-12-18T04:22:44;102666.97;;;-3.34;75.61
76060;BME280;64759;52.220;5.170;2022-12-18T04:25:11;102677.16;;;-3.40;75.71
76060;BME280;64759;52.220;5.170;2022-12-18T04:27:40;102669.56;;;-3.40;75.86
76060;BME280;64759;52.220;5.170;2022-12-18T04:30:07;102676.34;;;-3.48;75.82
76060;BME280;64759;52.220;5.170;2022-12-18T04:32:34;102677.25;;;-3.57;76.14
76060;BME280;64759;52.220;5.170;2022-12-18T04:35:00;102673.06;;;-3.68;76.21
76060;BME280;64759;52.220;5.170;2022-12-18T04:37:26;102680.59;;;-3.55;76.31
76060;BME280;64759;52.220;5.170;2022-12-18T04:39:51;102680.72;;;-3.83;76.21
76060;BME280;64759;52.220;5.170;2022-12-18T04:42:24;102692.53;;;-3.84;76.62
76060;BME280;64759;52.220;5.170;2022-12-18T04:44:49;102690.84;;;-3.83;76.48
76060;BME280;64759;52.220;5.170;2022-12-18T04:47:15;102702.63;;;-3.78;76.57
76060;BME280;64759;52.220;5.170;2022-12-18T04:49:40;102699.28;;;-3.81;76.10
76060;BME280;64759;52.220;5.170;2022-12-18T04:52:06;102704.31;;;-3.77;75.86
76060;BME280;64759;52.220;5.170;2022-12-18T04:54:31;102705.97;;;-3.65;75.83
76060;BME280;64759;52.220;5.170;2022-12-18T04:56:57;102717.88;;;-3.88;75.84
76060;BME280;64759;52.220;5.170;2022-12-18T04:59:22;102716.16;;;-3.83;76.29
76060;BME280;64759;52.220;5.170;2022-12-18T05:01:47;102718.66;;;-3.76;75.75
76060;BME280;64759;52.220;5.170;2022-12-18T05:04:13;102732.13;;;-3.71;75.65
76060;BME280;64759;52.220;5.170;2022-12-18T05:06:38;102732.16;;;-3.72;75.51
76060;BME280;64759;52.220;5.170;2022-12-18T05:09:03;102725.34;;;-3.57;75.32
76060;BME280;64759;52.220;5.170;2022-12-18T05:11:29;102734.63;;;-3.56;75.15
76060;BME280;64759;52.220;5.170;2022-12-18T05:13:54;102733.78;;;-3.56;74.88
76060;BME280;64759;52.220;5.170;2022-12-18T05:16:20;102732.09;;;-3.53;74.84
76060;BME280;64759;52.220;5.170;2022-12-18T05:18:45;102730.31;;;-3.39;74.47
76060;BME280;64759;52.220;5.170;2022-12-18T05:21:10;102735.44;;;-3.45;74.50
76060;BME280;64759;52.220;5.170;2022-12-18T05:23:36;102740.50;;;-3.42;74.25
76060;BME280;64759;52.220;5.170;2022-12-18T05:26:03;102746.44;;;-3.50;73.57
76060;BME280;64759;52.220;5.170;2022-12-18T05:28:30;102759.94;;;-3.47;73.80
76060;BME280;64759;52.220;5.170;2022-12-18T05:30:59;102751.50;;;-3.52;73.81
76060;BME280;64759;52.220;5.170;2022-12-18T05:33:26;102757.38;;;-3.39;74.04
76060;BME280;64759;52.220;5.170;2022-12-18T05:35:54;102751.44;;;-3.32;72.78
76060;BME280;64759;52.220;5.170;2022-12-18T05:38:21;102738.81;;;-3.43;73.48
76060;BME280;64759;52.220;5.170;2022-12-18T05:40:48;102733.75;;;-3.46;73.17
76060;BME280;64759;52.220;5.170;2022-12-18T05:43:14;102728.69;;;-3.44;73.58
76060;BME280;64759;52.220;5.170;2022-12-18T05:45:40;102727.81;;;-3.43;73.14
76060;BME280;64759;52.220;5.170;2022-12-18T05:48:06;102723.59;;;-3.43;73.59
76060;BME280;64759;52.220;5.170;2022-12-18T05:50:36;102721.06;;;-3.40;73.32
76060;BME280;64759;52.220;5.170;2022-12-18T05:53:03;102721.81;;;-3.25;73.11
76060;BME280;64759;52.220;5.170;2022-12-18T05:55:28;102712.56;;;-3.34;72.58
76060;BME280;64759;52.220;5.170;2022-12-18T05:57:54;102698.25;;;-3.35;72.88
76060;BME280;64759;52.220;5.170;2022-12-18T06:00:19;102707.50;;;-3.34;72.94
76060;BME280;64759;52.220;5.170;2022-12-18T06:02:47;102706.72;;;-3.45;72.90
76060;BME280;64759;52.220;5.170;2022-12-18T06:05:13;102716.91;;;-3.56;73.35
76060;BME280;64759;52.220;5.170;2022-12-18T06:07:39;102705.06;;;-3.51;73.08
76060;BME280;64759;52.220;5.170;2022-12-18T06:10:05;102701.66;;;-3.51;73.43
76060;BME280;64759;52.220;5.170;2022-12-18T06:12:30;102689.88;;;-3.49;73.00
76060;BME280;64759;52.220;5.170;2022-12-18T06:14:56;102690.72;;;-3.53;72.83
76060;BME280;64759;52.220;5.170;2022-12-18T06:17:21;102694.91;;;-3.51;72.95
76060;BME280;64759;52.220;5.170;2022-12-18T06:19:47;102693.22;;;-3.49;72.19
76060;BME280;64759;52.220;5.170;2022-12-18T06:22:12;102691.56;;;-3.50;72.67
76060;BME280;64759;52.220;5.170;2022-12-18T06:24:38;102692.47;;;-3.61;72.27
76060;BME280;64759;52.220;5.170;2022-12-18T06:27:03;102689.09;;;-3.68;72.84
76060;BME280;64759;52.220;5.170;2022-12-18T06:29:29;102687.41;;;-3.67;72.94
76060;BME280;64759;52.220;5.170;2022-12-18T06:31:54;102686.56;;;-3.68;73.07
76060;BME280;64759;52.220;5.170;2022-12-18T06:34:19;102686.56;;;-3.69;72.69
76060;BME280;64759;52.220;5.170;2022-12-18T06:36:45;102677.28;;;-3.73;72.77
76060;BME280;64759;52.220;5.170;2022-12-18T06:39:10;102673.91;;;-3.66;72.98
76060;BME280;64759;52.220;5.170;2022-12-18T06:41:36;102670.53;;;-3.64;72.98
76060;BME280;64759;52.220;5.170;2022-12-18T06:44:01;102663.75;;;-3.63;73.29
76060;BME280;64759;52.220;5.170;2022-12-18T06:46:26;102654.44;;;-3.58;73.09
76060;BME280;64759;52.220;5.170;2022-12-18T06:48:52;102648.53;;;-3.57;72.90
76060;BME280;64759;52.220;5.170;2022-12-18T06:51:19;102650.28;;;-3.64;72.90
76060;BME280;64759;52.220;5.170;2022-12-18T06:53:45;102649.44;;;-3.72;72.63
76060;BME280;64759;52.220;5.170;2022-12-18T06:56:10;102646.91;;;-3.70;72.94
76060;BME280;64759;52.220;5.170;2022-12-18T06:58:36;102638.53;;;-3.78;72.83
76060;BME280;64759;52.220;5.170;2022-12-18T07:01:04;102638.56;;;-3.86;73.09
76060;BME280;64759;52.220;5.170;2022-12-18T07:03:30;102629.28;;;-3.91;73.54
76060;BME280;64759;52.220;5.170;2022-12-18T07:05:59;102630.97;;;-3.89;73.67
76060;BME280;64759;52.220;5.170;2022-12-18T07:08:24;102631.81;;;-3.94;74.06
76060;BME280;64759;52.220;5.170;2022-12-18T07:10:49;102630.94;;;-3.84;73.29
76060;BME280;64759;52.220;5.170;2022-12-18T07:13:16;102631.78;;;-3.85;73.67
76060;BME280;64759;52.220;5.170;2022-12-18T07:15:42;102637.66;;;-3.80;73.63
76060;BME280;64759;52.220;5.170;2022-12-18T07:18:07;102629.16;;;-3.67;73.32
76060;BME280;64759;52.220;5.170;2022-12-18T07:20:32;102626.63;;;-3.67;73.45
76060;BME280;64759;52.220;5.170;2022-12-18T07:22:58;102621.56;;;-3.61;73.38
76060;BME280;64759;52.220;5.170;2022-12-18T07:25:23;102624.09;;;-3.61;73.19
76060;BME280;64759;52.220;5.170;2022-12-18T07:27:48;102623.28;;;-3.66;73.22
76060;BME280;64759;52.220;5.170;2022-12-18T07:30:14;102620.75;;;-3.69;73.31
76060;BME280;64759;52.220;5.170;2022-12-18T07:32:39;102609.72;;;-3.62;72.73
76060;BME280;64759;52.220;5.170;2022-12-18T07:35:05;102610.63;;;-3.69;73.24
76060;BME280;64759;52.220;5.170;2022-12-18T07:37:30;102608.00;;;-3.56;73.20
76060;BME280;64759;52.220;5.170;2022-12-18T07:39:55;102604.63;;;-3.56;73.25
76060;BME280;64759;52.220;5.170;2022-12-18T07:42:24;102600.44;;;-3.59;72.90
76060;BME280;64759;52.220;5.170;2022-12-18T07:44:58;102592.81;;;-3.56;73.01
76060;BME280;64759;52.220;5.170;2022-12-18T07:47:24;102583.66;;;-3.76;73.07
76060;BME280;64759;52.220;5.170;2022-12-18T07:49:50;102579.41;;;-3.73;73.28
76060;BME280;64759;52.220;5.170;2022-12-18T07:52:15;102577.69;;;-3.68;72.94
76060;BME280;64759;52.220;5.170;2022-12-18T07:54:41;102571.78;;;-3.70;73.43
76060;BME280;64759;52.220;5.170;2022-12-18T07:57:07;102570.13;;;-3.72;73.28
76060;BME280;64759;52.220;5.170;2022-12-18T07:59:32;102569.28;;;-3.74;73.46
76060;BME280;64759;52.220;5.170;2022-12-18T08:01:58;102571.00;;;-3.76;73.56
76060;BME280;64759;52.220;5.170;2022-12-18T08:04:24;102572.59;;;-3.63;73.52
76060;BME280;64759;52.220;5.170;2022-12-18T08:06:50;102564.97;;;-3.60;73.26
76060;BME280;64759;52.220;5.170;2022-12-18T08:09:15;102556.50;;;-3.56;73.14
76060;BME280;64759;52.220;5.170;2022-12-18T08:11:41;102563.25;;;-3.55;73.06
76060;BME280;64759;52.220;5.170;2022-12-18T08:14:07;102574.19;;;-3.47;73.01
76060;BME280;64759;52.220;5.170;2022-12-18T08:16:32;102572.50;;;-3.47;73.00
76060;BME280;64759;52.220;5.170;2022-12-18T08:18:57;102584.31;;;-3.44;73.40
76060;BME280;64759;52.220;5.170;2022-12-18T08:21:25;102583.44;;;-3.42;73.74
76060;BME280;64759;52.220;5.170;2022-12-18T08:23:52;102588.56;;;-3.54;73.81
76060;BME280;64759;52.220;5.170;2022-12-18T08:26:18;102602.84;;;-3.38;73.69
76060;BME280;64759;52.220;5.170;2022-12-18T08:28:44;102601.09;;;-3.31;73.36
76060;BME280;64759;52.220;5.170;2022-12-18T08:31:09;102604.34;;;-3.14;72.97
76060;BME280;64759;52.220;5.170;2022-12-18T08:33:36;102600.13;;;-3.16;72.65
76060;BME280;64759;52.220;5.170;2022-12-18T08:36:04;102605.25;;;-3.19;73.26
76060;BME280;64759;52.220;5.170;2022-12-18T08:38:31;102603.56;;;-3.20;73.35
76060;BME280;64759;52.220;5.170;2022-12-18T08:41:02;102595.09;;;-3.18;73.34
76060;BME280;64759;52.220;5.170;2022-12-18T08:43:27;102594.31;;;-3.27;73.83
76060;BME280;64759;52.220;5.170;2022-12-18T08:46:12;102582.44;;;-3.21;73.78
76060;BME280;64759;52.220;5.170;2022-12-18T08:48:37;102585.69;;;-3.07;72.93
76060;BME280;64759;52.220;5.170;2022-12-18T08:51:03;102575.63;;;-3.13;73.37
76060;BME280;64759;52.220;5.170;2022-12-18T08:53:28;102590.78;;;-3.08;73.21
76060;BME280;64759;52.220;5.170;2022-12-18T08:55:55;102585.66;;;-3.01;72.98
76060;BME280;64759;52.220;5.170;2022-12-18T08:58:21;102590.66;;;-2.90;72.89
76060;BME280;64759;52.220;5.170;2022-12-18T09:00:46;102594.81;;;-2.86;72.33
76060;BME280;64759;52.220;5.170;2022-12-18T09:03:16;102580.53;;;-2.93;72.74
76060;BME280;64759;52.220;5.170;2022-12-18T09:05:42;102573.66;;;-2.81;72.34
76060;BME280;64759;52.220;5.170;2022-12-18T09:08:07;102574.50;;;-2.80;72.25
76060;BME280;64759;52.220;5.170;2022-12-18T09:10:33;102566.91;;;-2.83;72.92
76060;BME280;64759;52.220;5.170;2022-12-18T09:12:58;102572.88;;;-2.89;73.06
76060;BME280;64759;52.220;5.170;2022-12-18T09:15:24;102573.66;;;-2.81;73.07
76060;BME280;64759;52.220;5.170;2022-12-18T09:17:49;102583.03;;;-2.90;73.35
76060;BME280;64759;52.220;5.170;2022-12-18T09:20:16;102576.19;;;-2.81;73.08
76060;BME280;64759;52.220;5.170;2022-12-18T09:22:41;102578.66;;;-2.78;73.57
76060;BME280;64759;52.220;5.170;2022-12-18T09:25:07;102576.09;;;-2.72;73.82
76060;BME280;64759;52.220;5.170;2022-12-18T09:27:33;102582.94;;;-2.78;73.11
76060;BME280;64759;52.220;5.170;2022-12-18T09:29:59;102574.50;;;-2.82;73.57
76060;BME280;64759;52.220;5.170;2022-12-18T09:32:24;102566.97;;;-2.89;73.39
76060;BME280;64759;52.220;5.170;2022-12-18T09:34:50;102555.91;;;-2.81;74.33
76060;BME280;64759;52.220;5.170;2022-12-18T09:37:15;102561.69;;;-2.70;73.56
76060;BME280;64759;52.220;5.170;2022-12-18T09:39:40;102552.16;;;-2.46;73.01
76060;BME280;64759;52.220;5.170;2022-12-18T09:42:06;102555.75;;;-2.66;73.15
76060;BME280;64759;52.220;5.170;2022-12-18T09:44:42;102551.47;;;-2.62;73.75
76060;BME280;64759;52.220;5.170;2022-12-18T09:47:18;102559.81;;;-2.51;73.31
76060;BME280;64759;52.220;5.170;2022-12-18T09:49:47;102561.69;;;-2.68;74.05
76060;BME280;64759;52.220;5.170;2022-12-18T09:54:56;102542.41;;;-2.83;74.87
76060;BME280;64759;52.220;5.170;2022-12-18T09:57:25;102540.44;;;-2.56;74.05
76060;BME280;64759;52.220;5.170;2022-12-18T10:00:04;102529.56;;;-2.69;74.44
76060;BME280;64759;52.220;5.170;2022-12-18T10:02:37;102531.16;;;-2.59;74.44
76060;BME280;64759;52.220;5.170;2022-12-18T10:05:11;102519.09;;;-2.39;73.87
76060;BME280;64759;52.220;5.170;2022-12-18T10:07:55;102525.97;;;-2.48;73.88
76060;BME280;64759;52.220;5.170;2022-12-18T10:10:46;102527.72;;;-2.55;73.62
76060;BME280;64759;52.220;5.170;2022-12-18T10:13:28;102530.97;;;-2.42;73.51
76060;BME280;64759;52.220;5.170;2022-12-18T10:16:42;102541.88;;;-2.34;73.63
76060;BME280;64759;52.220;5.170;2022-12-18T10:19:20;102562.94;;;-2.26;73.74
76060;BME280;64759;52.220;5.170;2022-12-18T10:27:17;102523.94;;;-2.21;74.08
76060;BME280;64759;52.220;5.170;2022-12-18T10:29:44;102518.22;;;-2.36;74.09
76060;BME280;64759;52.220;5.170;2022-12-18T10:32:19;102529.22;;;-2.37;74.56
76060;BME280;64759;52.220;5.170;2022-12-18T10:34:46;102531.66;;;-2.30;74.82
76060;BME280;64759;52.220;5.170;2022-12-18T10:37:16;102529.06;;;-2.24;74.82
76060;BME280;64759;52.220;5.170;2022-12-18T10:39:42;102521.38;;;-2.19;74.60
76060;BME280;64759;52.220;5.170;2022-12-18T10:42:11;102512.88;;;-2.15;74.80
76060;BME280;64759;52.220;5.170;2022-12-18T10:44:40;102512.72;;;-2.05;74.67
76060;BME280;64759;52.220;5.170;2022-12-18T10:47:17;102507.75;;;-2.14;74.53
76060;BME280;64759;52.220;5.170;2022-12-18T10:49:52;102512.47;;;-1.86;73.91
76060;BME280;64759;52.220;5.170;2022-12-18T10:52:25;102510.91;;;-1.97;73.92
76060;BME280;64759;52.220;5.170;2022-12-18T10:54:55;102504.91;;;-1.91;73.63
76060;BME280;64759;52.220;5.170;2022-12-18T10:59:53;102488.97;;;-1.99;74.34
76060;BME280;64759;52.220;5.170;2022-12-18T11:02:34;102481.09;;;-1.84;73.94
76060;BME280;64759;52.220;5.170;2022-12-18T11:05:00;102473.31;;;-1.72;73.70
76060;BME280;64759;52.220;5.170;2022-12-18T11:07:26;102468.09;;;-1.64;73.39
76060;BME280;64759;52.220;5.170;2022-12-18T11:10:16;102471.44;;;-1.61;73.62
76060;BME280;64759;52.220;5.170;2022-12-18T11:12:41;102476.38;;;-1.52;73.26
76060;BME280;64759;52.220;5.170;2022-12-18T11:15:15;102467.75;;;-1.42;73.35
76060;BME280;64759;52.220;5.170;2022-12-18T11:17:41;102463.34;;;-1.30;72.88
76060;BME280;64759;52.220;5.170;2022-12-18T11:20:22;102468.41;;;-1.32;72.69
76060;BME280;64759;52.220;5.170;2022-12-18T11:22:59;102453.72;;;-1.64;73.11
76060;BME280;64759;52.220;5.170;2022-12-18T11:25:26;102451.09;;;-1.58;73.58
76060;BME280;64759;52.220;5.170;2022-12-18T11:27:56;102456.69;;;-1.39;72.82
76060;BME280;64759;52.220;5.170;2022-12-18T11:30:27;102459.06;;;-1.30;73.10
76060;BME280;64759;52.220;5.170;2022-12-18T11:33:04;102453.16;;;-1.32;72.47
76060;BME280;64759;52.220;5.170;2022-12-18T11:38:17;102449.69;;;-1.26;72.36
76060;BME280;64759;52.220;5.170;2022-12-18T11:40:49;102452.16;;;-1.22;72.86
76060;BME280;64759;52.220;5.170;2022-12-18T11:43:21;102446.22;;;-1.22;72.16
76060;BME280;64759;52.220;5.170;2022-12-18T11:46:12;102457.09;;;-1.14;72.61
76060;BME280;64759;52.220;5.170;2022-12-18T11:49:01;102440.34;;;-1.24;72.45
76060;BME280;64759;52.220;5.170;2022-12-18T11:51:35;102429.94;;;-1.12;72.49
76060;BME280;64759;52.220;5.170;2022-12-18T11:54:13;102421.47;;;-1.13;72.43
76060;BME280;64759;52.220;5.170;2022-12-18T11:56:49;102421.56;;;-1.17;72.74
76060;BME280;64759;52.220;5.170;2022-12-18T12:07:55;102386.34;;;-0.93;72.01
76060;BME280;64759;52.220;5.170;2022-12-18T12:10:42;102379.91;;;-1.10;72.05
76060;BME280;64759;52.220;5.170;2022-12-18T12:16:27;102382.38;;;-1.07;71.52
76060;BME280;64759;52.220;5.170;2022-12-18T12:21:40;102365.72;;;-0.79;71.74
76060;BME280;64759;52.220;5.170;2022-12-18T12:24:26;102367.41;;;-0.80;71.82
76060;BME280;64759;52.220;5.170;2022-12-18T12:27:19;102369.44;;;-0.95;71.73
76060;BME280;64759;52.220;5.170;2022-12-18T12:35:44;102357.88;;;-0.70;71.42
76060;BME280;64759;52.220;5.170;2022-12-18T12:40:54;102340.91;;;-0.70;71.33
76060;BME280;64759;52.220;5.170;2022-12-18T12:43:35;102330.13;;;-0.79;71.19
76060;BME280;64759;52.220;5.170;2022-12-18T12:46:05;102345.47;;;-0.84;71.64
76060;BME280;64759;52.220;5.170;2022-12-18T12:48:44;102332.59;;;-0.78;71.89
76060;BME280;64759;52.220;5.170;2022-12-18T12:51:21;102330.88;;;-0.76;71.20
76060;BME280;64759;52.220;5.170;2022-12-18T12:53:47;102327.47;;;-0.76;71.30
76060;BME280;64759;52.220;5.170;2022-12-18T12:56:15;102330.13;;;-0.81;71.20
76060;BME280;64759;52.220;5.170;2022-12-18T12:58:56;102333.56;;;-0.82;71.03
76060;BME280;64759;52.220;5.170;2022-12-18T13:01:41;102325.63;;;-0.68;71.28
76060;BME280;64759;52.220;5.170;2022-12-18T13:07:14;102322.59;;;-0.85;71.55
76060;BME280;64759;52.220;5.170;2022-12-18T13:15:42;102322.03;;;-0.59;70.78
76060;BME280;64759;52.220;5.170;2022-12-18T13:23:27;102307.13;;;-0.39;70.48
76060;BME280;64759;52.220;5.170;2022-12-18T13:25:55;102309.78;;;-0.44;70.26
76060;BME280;64759;52.220;5.170;2022-12-18T13:31:00;102301.47;;;-0.50;70.22
76060;BME280;64759;52.220;5.170;2022-12-18T13:38:39;102282.28;;;-0.28;69.81
76060;BME280;64759;52.220;5.170;2022-12-18T13:43:55;102260.56;;;-0.43;69.86
76060;BME280;64759;52.220;5.170;2022-12-18T13:46:29;102249.66;;;-0.48;70.06
76060;BME280;64759;52.220;5.170;2022-12-18T13:49:05;102253.06;;;-0.47;70.38
76060;BME280;64759;52.220;5.170;2022-12-18T13:51:33;102250.22;;;-0.37;70.29
76060;BME280;64759;52.220;5.170;2022-12-18T13:54:01;102253.25;;;-0.55;70.29
76060;BME280;64759;52.220;5.170;2022-12-18T13:56:30;102249.81;;;-0.54;70.33
76060;BME280;64759;52.220;5.170;2022-12-18T13:59:51;102251.53;;;-0.54;70.11
76060;BME280;64759;52.220;5.170;2022-12-18T14:04:25;102240.41;;;-0.50;70.39
76060;BME280;64759;52.220;5.170;2022-12-18T14:07:05;102231.19;;;-0.54;70.27
76060;BME280;64759;52.220;5.170;2022-12-18T14:09:35;102241.91;;;-0.42;69.93
76060;BME280;64759;52.220;5.170;2022-12-18T14:12:02;102247.06;;;-0.45;70.28
76060;BME280;64759;52.220;5.170;2022-12-18T14:14:48;102246.06;;;-0.39;69.75
76060;BME280;64759;52.220;5.170;2022-12-18T14:17:16;102237.75;;;-0.46;69.95
76060;BME280;64759;52.220;5.170;2022-12-18T14:19:49;102233.59;;;-0.50;69.60
76060;BME280;64759;52.220;5.170;2022-12-18T14:22:25;102230.16;;;-0.47;70.03
76060;BME280;64759;52.220;5.170;2022-12-18T14:25:20;102226.66;;;-0.43;69.90
76060;BME280;64759;52.220;5.170;2022-12-18T14:28:00;102225.25;;;-0.56;70.29